createdAt,value
2019-01-04T00:01:20.147Z,99.60
2019-01-04T00:03:48.544Z,99.50
2019-01-04T00:06:18.579Z,99.20
2019-01-04T00:08:46.983Z,99.20
2019-01-04T00:11:15.351Z,98.80
2019-01-04T00:13:43.750Z,98.70
2019-01-04T00:16:12.123Z,98.70
2019-01-04T00:18:43.457Z,98.70
2019-01-04T00:21:11.762Z,98.60
2019-01-04T00:23:40.151Z,99.00
2019-01-04T00:26:08.528Z,99.20
2019-01-04T00:28:36.992Z,99.20
2019-01-04T00:31:05.377Z,99.10
2019-01-04T00:33:33.772Z,99.40
2019-01-04T00:36:02.163Z,99.10
2019-01-04T00:38:32.183Z,99.20
2019-01-04T00:41:00.589Z,98.80
2019-01-04T00:43:28.975Z,98.60
2019-01-04T00:45:57.741Z,98.60
2019-01-04T00:48:28.426Z,98.50
2019-01-04T00:50:56.832Z,98.50
2019-01-04T00:53:25.200Z,98.60
2019-01-04T00:55:56.934Z,98.70
2019-01-04T00:58:48.913Z,99.10
2019-01-04T01:01:35.885Z,99.50
2019-01-04T01:04:24.435Z,99.60
2019-01-04T01:07:15.522Z,99.80
2019-01-04T01:09:59.365Z,99.80
2019-01-04T01:12:36.903Z,99.70
2019-01-04T01:15:25.018Z,99.60
2019-01-04T01:18:15.045Z,99.40
2019-01-04T01:20:58.790Z,99.30
2019-01-04T01:23:56.483Z,99.40
2019-01-04T01:26:44.926Z,99.40
2019-01-04T01:29:49.952Z,99.30
2019-01-04T01:32:38.206Z,99.90
2019-01-04T01:35:33.579Z,99.90
2019-01-04T01:38:22.981Z,99.90
2019-01-04T01:41:15.736Z,99.50
2019-01-04T01:44:22.215Z,99.30
2019-01-04T01:46:56.466Z,99.30
2019-01-04T01:49:43.306Z,99.10
2019-01-04T01:52:15.011Z,99.30
2019-01-04T01:54:43.321Z,99.90
2019-01-04T01:57:11.708Z,99.60
2019-01-04T01:59:40.383Z,99.60
2019-01-04T02:02:08.779Z,99.60
2019-01-04T02:04:37.142Z,99.60
2019-01-04T02:07:05.544Z,99.40
2019-01-04T02:09:34.199Z,99.10
2019-01-04T02:12:02.566Z,99.00
2019-01-04T02:14:30.972Z,98.90
2019-01-04T02:16:59.339Z,99.00
2019-01-04T02:19:28.528Z,98.80
2019-01-04T02:21:56.900Z,98.70
2019-01-04T02:24:25.298Z,98.70
2019-01-04T02:26:53.672Z,98.70
2019-01-04T02:29:22.074Z,98.60
2019-01-04T02:31:50.873Z,98.70
2019-01-04T02:34:19.276Z,98.50
2019-01-04T02:36:49.065Z,98.30
2019-01-04T02:39:18.591Z,98.70
2019-01-04T02:41:47.279Z,98.30
2019-01-04T02:44:15.802Z,98.20
2019-01-04T02:46:44.217Z,98.10
2019-01-04T02:49:12.604Z,98.00
2019-01-04T02:51:40.970Z,98.00
2019-01-04T02:54:09.363Z,97.80
2019-01-04T02:56:37.740Z,98.30
2019-01-04T02:59:06.131Z,98.30
2019-01-04T03:01:34.502Z,98.30
2019-01-04T03:04:03.257Z,98.40
2019-01-04T03:06:32.007Z,98.60
2019-01-04T03:09:00.461Z,98.80
2019-01-04T03:11:28.835Z,99.00
2019-01-04T03:13:57.230Z,99.40
2019-01-04T03:16:25.654Z,99.50
2019-01-04T03:18:54.262Z,99.70
2019-01-04T03:21:22.643Z,99.90
2019-01-04T03:23:51.032Z,99.90
2019-01-04T03:26:19.412Z,99.90
2019-01-04T03:28:47.815Z,99.90
2019-01-04T03:31:16.539Z,99.90
2019-01-04T03:33:46.415Z,99.90
2019-01-04T03:36:14.794Z,99.90
2019-01-04T03:38:44.837Z,99.90
2019-01-04T03:41:13.470Z,99.90
2019-01-04T03:43:41.865Z,99.90
2019-01-04T03:46:10.235Z,99.90
2019-01-04T03:48:40.136Z,99.90
2019-01-04T03:51:08.512Z,99.90
2019-01-04T03:53:36.871Z,99.90
2019-01-04T03:56:05.644Z,99.90
2019-01-04T03:58:34.024Z,99.90
2019-01-04T04:01:02.445Z,99.90
2019-01-04T04:03:31.183Z,99.80
2019-01-04T04:05:59.572Z,99.90
2019-01-04T04:08:27.947Z,99.90
2019-01-04T04:10:56.341Z,99.90
2019-01-04T04:13:24.804Z,99.90
2019-01-04T04:15:53.208Z,99.90
2019-01-04T04:18:21.587Z,99.90
2019-01-04T04:20:49.983Z,99.90
2019-01-04T04:23:18.364Z,99.90
2019-01-04T04:25:46.881Z,99.90
2019-01-04T04:28:16.413Z,99.90
2019-01-04T04:30:44.814Z,99.90
2019-01-04T04:33:13.232Z,99.90
2019-01-04T04:35:41.628Z,99.90
2019-01-04T04:38:10.001Z,99.80
2019-01-04T04:40:38.431Z,99.80
2019-01-04T04:43:06.925Z,99.70
2019-01-04T04:45:35.591Z,99.90
2019-01-04T04:48:03.981Z,99.40
2019-01-04T04:50:32.500Z,99.50
2019-01-04T04:53:00.871Z,99.70
2019-01-04T04:55:29.438Z,99.80
2019-01-04T04:57:57.812Z,99.70
2019-01-04T05:00:28.503Z,99.50
2019-01-04T05:02:56.872Z,99.60
2019-01-04T05:05:25.259Z,99.60
2019-01-04T05:07:53.629Z,99.60
2019-01-04T05:10:22.028Z,99.50
2019-01-04T05:12:50.398Z,99.60
2019-01-04T05:15:18.770Z,99.40
2019-01-04T05:17:47.171Z,99.80
2019-01-04T05:20:15.545Z,99.90
2019-01-04T05:22:43.935Z,99.90
2019-01-04T05:25:12.378Z,99.90
2019-01-04T05:27:40.774Z,99.90
2019-01-04T05:30:09.420Z,99.90
2019-01-04T05:32:38.221Z,99.90
2019-01-04T05:35:06.663Z,99.90
2019-01-04T05:37:35.069Z,99.90
2019-01-04T05:40:04.170Z,99.90
2019-01-04T05:42:32.583Z,99.90
2019-01-04T05:45:00.951Z,99.90
2019-01-04T05:47:29.350Z,99.90
2019-01-04T05:49:57.726Z,99.90
2019-01-04T05:52:28.151Z,99.90
2019-01-04T05:54:56.697Z,99.90
2019-01-04T05:57:25.193Z,99.90
2019-01-04T05:59:56.219Z,99.90
2019-01-04T06:02:24.599Z,99.90
2019-01-04T06:04:52.977Z,99.90
2019-01-04T06:07:21.383Z,99.90
2019-01-04T06:09:49.764Z,99.90
2019-01-04T06:12:18.188Z,99.90
2019-01-04T06:14:46.567Z,99.90
2019-01-04T06:17:14.958Z,99.90
2019-01-04T06:19:43.336Z,99.90
2019-01-04T06:22:11.729Z,99.50
2019-01-04T06:24:40.150Z,99.60
2019-01-04T06:27:08.554Z,99.80
2019-01-04T06:29:36.929Z,99.50
2019-01-04T06:32:05.608Z,99.40
2019-01-04T06:34:33.985Z,99.60
2019-01-04T06:37:02.634Z,99.50
2019-01-04T06:39:34.577Z,99.40
2019-01-04T06:42:04.076Z,99.30
2019-01-04T06:44:32.471Z,99.10
2019-01-04T06:47:14.670Z,99.20
2019-01-04T06:49:43.114Z,99.00
2019-01-04T06:52:11.476Z,99.00
2019-01-04T06:55:18.255Z,98.80
2019-01-04T06:57:46.651Z,98.90
2019-01-04T07:00:15.215Z,98.90
2019-01-04T07:02:43.932Z,99.00
2019-01-04T07:05:12.312Z,99.10
2019-01-04T07:07:41.046Z,98.80
2019-01-04T07:10:09.820Z,98.90
2019-01-04T07:12:38.787Z,98.90
2019-01-04T07:15:07.347Z,99.10
2019-01-04T07:17:36.261Z,98.90
2019-01-04T07:20:08.567Z,99.00
2019-01-04T07:22:37.163Z,98.80
2019-01-04T07:25:05.850Z,98.70
2019-01-04T07:27:34.433Z,98.70
2019-01-04T07:30:02.990Z,98.70
2019-01-04T07:32:31.371Z,98.70
2019-01-04T07:35:00.800Z,98.50
2019-01-04T07:37:29.179Z,98.50
2019-01-04T07:39:57.626Z,98.50
2019-01-04T07:42:26.001Z,98.20
2019-01-04T07:44:54.395Z,98.40
2019-01-04T07:47:22.778Z,98.60
2019-01-04T07:49:51.182Z,98.50
2019-01-04T07:52:19.551Z,98.50
2019-01-04T07:54:47.946Z,98.50
2019-01-04T07:57:16.329Z,98.40
2019-01-04T07:59:44.727Z,98.30
2019-01-04T08:02:33.662Z,98.50
2019-01-04T08:05:02.057Z,98.20
2019-01-04T08:07:30.434Z,98.10
2019-01-04T08:09:59.022Z,98.00
2019-01-04T08:12:27.374Z,97.70
2019-01-04T08:14:55.889Z,97.60
2019-01-04T08:17:24.252Z,97.70
2019-01-04T08:19:52.656Z,97.30
2019-01-04T08:22:22.140Z,97.20
2019-01-04T08:24:50.600Z,97.20
2019-01-04T08:27:18.971Z,97.20
2019-01-04T08:29:47.407Z,97.20
2019-01-04T08:32:17.779Z,97.00
2019-01-04T08:34:47.303Z,97.00
2019-01-04T08:37:15.692Z,96.40
2019-01-04T08:39:45.527Z,96.40
2019-01-04T08:42:13.902Z,96.10
2019-01-04T08:44:42.621Z,95.80
2019-01-04T08:47:11.044Z,95.90
2019-01-04T08:49:39.389Z,95.50
2019-01-04T08:52:07.763Z,95.00
2019-01-04T08:54:36.154Z,94.70
2019-01-04T08:57:04.543Z,94.60
2019-01-04T08:59:34.208Z,94.20
2019-01-04T09:02:02.597Z,94.00
2019-01-04T09:04:30.969Z,93.90
2019-01-04T09:06:59.364Z,93.50
2019-01-04T09:09:28.060Z,93.30
2019-01-04T09:11:56.457Z,92.80
2019-01-04T09:14:24.822Z,92.90
2019-01-04T09:16:53.220Z,92.60
2019-01-04T09:19:23.182Z,92.70
2019-01-04T09:21:51.491Z,92.00
2019-01-04T09:24:19.860Z,91.80
2019-01-04T09:26:48.256Z,91.90
2019-01-04T09:29:17.754Z,92.10
2019-01-04T09:31:46.156Z,92.20
2019-01-04T09:34:14.529Z,91.80
2019-01-04T09:36:42.926Z,92.00
2019-01-04T09:39:11.295Z,91.80
2019-01-04T09:41:41.195Z,92.00
2019-01-04T09:44:09.842Z,91.70
2019-01-04T09:46:39.616Z,91.50
2019-01-04T09:49:08.063Z,91.20
2019-01-04T09:51:36.469Z,91.50
2019-01-04T09:54:04.852Z,91.50
2019-01-04T09:56:33.225Z,91.10
2019-01-04T09:59:01.631Z,90.60
2019-01-04T10:01:31.195Z,90.40
2019-01-04T10:04:00.694Z,90.20
2019-01-04T10:06:29.270Z,90.20
2019-01-04T10:08:59.209Z,90.00
2019-01-04T10:11:27.579Z,89.60
2019-01-04T10:13:55.980Z,89.30
2019-01-04T10:16:24.355Z,88.60
2019-01-04T10:18:52.766Z,88.30
2019-01-04T10:21:21.146Z,87.20
2019-01-04T10:23:49.669Z,86.70
2019-01-04T10:26:18.024Z,86.70
2019-01-04T10:28:49.512Z,85.80
2019-01-04T10:31:17.947Z,85.70
2019-01-04T10:33:46.339Z,87.10
2019-01-04T10:36:14.720Z,86.60
2019-01-04T10:38:43.118Z,85.50
2019-01-04T10:41:11.554Z,84.70
2019-01-04T10:43:40.328Z,85.50
2019-01-04T10:46:08.703Z,88.10
2019-01-04T10:48:38.544Z,87.20
2019-01-04T10:51:06.928Z,87.30
2019-01-04T10:53:35.319Z,87.30
2019-01-04T10:56:03.696Z,88.50
2019-01-04T10:58:32.101Z,88.30
2019-01-04T11:01:00.488Z,89.30
2019-01-04T11:03:29.148Z,89.20
2019-01-04T11:05:57.880Z,89.90
2019-01-04T11:08:26.279Z,89.20
2019-01-04T11:10:54.672Z,89.80
2019-01-04T11:13:23.336Z,88.50
2019-01-04T11:15:52.036Z,87.50
2019-01-04T11:18:20.448Z,87.10
2019-01-04T11:20:48.869Z,84.40
2019-01-04T11:23:41.241Z,83.10
2019-01-04T11:26:13.167Z,84.30
2019-01-04T11:29:02.759Z,84.50
2019-01-04T11:31:39.988Z,85.70
2019-01-04T11:34:17.402Z,86.60
2019-01-04T11:36:54.554Z,86.50
2019-01-04T11:39:32.316Z,84.70
2019-01-04T11:42:06.761Z,83.40
2019-01-04T11:44:47.048Z,82.60
2019-01-04T11:47:28.066Z,80.90
2019-01-04T11:50:16.602Z,78.20
2019-01-04T11:52:46.620Z,74.00
2019-01-04T11:55:15.139Z,68.70
2019-01-04T11:57:45.184Z,64.80
2019-01-04T12:00:13.562Z,60.60
2019-01-04T12:02:41.999Z,59.30
2019-01-04T12:05:11.480Z,59.50
2019-01-04T12:07:39.856Z,61.60
2019-01-04T12:10:08.856Z,62.70
2019-01-04T12:12:37.233Z,62.30
2019-01-04T12:15:08.003Z,64.90
2019-01-04T12:17:36.397Z,67.80
2019-01-04T12:20:06.918Z,70.30
2019-01-04T12:22:35.416Z,72.40
2019-01-04T12:25:03.866Z,74.60
2019-01-04T12:27:32.472Z,76.00
2019-01-04T12:30:01.230Z,77.80
2019-01-04T12:32:29.999Z,80.20
2019-01-04T12:34:58.392Z,80.90
2019-01-04T12:37:26.787Z,82.10
2019-01-04T12:39:55.229Z,82.90
2019-01-04T12:42:24.210Z,85.00
2019-01-04T12:44:53.046Z,84.50
2019-01-04T12:47:21.455Z,84.50
2019-01-04T12:49:50.893Z,84.20
2019-01-04T12:52:19.773Z,84.40
2019-01-04T12:54:48.290Z,83.70
2019-01-04T12:57:16.655Z,83.60
2019-01-04T12:59:45.054Z,83.80
2019-01-04T13:02:13.786Z,83.90
2019-01-04T13:04:42.477Z,84.40
2019-01-04T13:07:12.007Z,85.60
2019-01-04T13:09:40.484Z,85.50
2019-01-04T13:12:08.857Z,85.40
2019-01-04T13:14:37.259Z,86.50
2019-01-04T13:17:08.413Z,87.20
2019-01-04T13:19:36.885Z,87.00
2019-01-04T13:22:05.271Z,85.90
2019-01-04T13:24:33.733Z,85.10
2019-01-04T13:27:02.222Z,85.30
2019-01-04T13:29:30.495Z,85.40
2019-01-04T13:31:58.896Z,85.50
2019-01-04T13:34:28.471Z,85.60
2019-01-04T13:36:57.223Z,86.40
2019-01-04T13:39:25.595Z,87.20
2019-01-04T13:41:54.037Z,87.70
2019-01-04T13:44:22.763Z,88.00
2019-01-04T13:46:51.175Z,87.30
2019-01-04T13:49:19.567Z,88.40
2019-01-04T13:51:48.213Z,87.50
2019-01-04T13:54:16.652Z,87.80
2019-01-04T13:56:45.112Z,88.40
2019-01-04T13:59:16.568Z,88.80
2019-01-04T14:01:44.950Z,88.30
2019-01-04T14:04:13.417Z,88.10
2019-01-04T14:06:41.847Z,89.00
2019-01-04T14:09:10.234Z,89.00
2019-01-04T14:11:38.635Z,89.20
2019-01-04T14:14:07.505Z,90.10
2019-01-04T14:16:35.877Z,90.20
2019-01-04T14:19:04.556Z,90.60
2019-01-04T14:21:33.111Z,90.50
2019-01-04T14:24:01.468Z,90.20
2019-01-04T14:26:29.956Z,90.30
2019-01-04T14:28:58.865Z,90.40
2019-01-04T14:31:28.419Z,90.50
2019-01-04T14:33:56.818Z,90.30
2019-01-04T14:36:25.197Z,90.70
2019-01-04T14:38:53.599Z,91.40
2019-01-04T14:41:23.393Z,91.40
2019-01-04T14:43:51.868Z,91.50
2019-01-04T14:46:20.238Z,91.40
2019-01-04T14:48:48.636Z,91.50
2019-01-04T14:51:17.019Z,91.90
2019-01-04T14:53:45.433Z,92.10
2019-01-04T14:56:14.121Z,92.30
2019-01-04T14:58:42.555Z,92.10
2019-01-04T15:01:13.926Z,92.00
2019-01-04T15:03:42.310Z,92.10
2019-01-04T15:06:10.749Z,92.30
2019-01-04T15:08:39.126Z,92.20
2019-01-04T15:11:07.511Z,92.30
2019-01-04T15:13:35.892Z,92.40
2019-01-04T15:16:04.293Z,92.40
2019-01-04T15:18:32.673Z,92.70
2019-01-04T15:21:01.078Z,92.70
2019-01-04T15:23:29.447Z,92.90
2019-01-04T15:25:57.861Z,92.80
2019-01-04T15:28:26.268Z,92.70
2019-01-04T15:30:54.659Z,92.70
2019-01-04T15:33:23.047Z,92.70
2019-01-04T15:35:51.445Z,92.70
2019-01-04T15:38:19.822Z,92.80
2019-01-04T15:40:48.215Z,92.80
2019-01-04T15:43:16.592Z,93.30
2019-01-04T15:45:44.991Z,93.40
2019-01-04T15:48:13.377Z,93.30
2019-01-04T15:50:41.798Z,93.20
2019-01-04T15:53:10.164Z,93.50
2019-01-04T15:55:38.643Z,93.40
2019-01-04T15:58:07.011Z,93.60
2019-01-04T16:00:35.408Z,94.00
2019-01-04T16:03:03.780Z,93.80
2019-01-04T16:05:32.212Z,93.60
2019-01-04T16:08:00.580Z,93.50
2019-01-04T16:10:28.976Z,93.40
2019-01-04T16:12:57.347Z,93.30
2019-01-04T16:15:25.755Z,93.30
2019-01-04T16:17:54.134Z,93.20
2019-01-04T16:20:29.698Z,92.90
2019-01-04T16:22:58.073Z,92.50
2019-01-04T16:25:26.541Z,92.50
2019-01-04T16:27:54.920Z,92.50
2019-01-04T16:30:23.294Z,92.60
2019-01-04T16:32:51.640Z,93.00
2019-01-04T16:35:20.008Z,93.60
2019-01-04T16:37:48.390Z,92.60
2019-01-04T16:40:16.690Z,92.80
2019-01-04T16:42:46.558Z,92.40
2019-01-04T16:45:17.118Z,92.10
2019-01-04T16:47:46.732Z,92.10
2019-01-04T16:50:15.112Z,91.70
2019-01-04T16:52:43.533Z,91.50
2019-01-04T16:55:11.966Z,91.00
2019-01-04T16:57:41.793Z,90.80
2019-01-04T17:00:11.665Z,90.80
2019-01-04T17:02:49.836Z,90.60
2019-01-04T17:05:18.298Z,90.60
2019-01-04T17:07:46.786Z,90.40
2019-01-04T17:10:15.190Z,90.20
2019-01-04T17:12:43.628Z,90.50
2019-01-04T17:15:12.033Z,90.40
2019-01-04T17:17:40.480Z,90.50
2019-01-04T17:20:08.837Z,90.70
2019-01-04T17:22:37.264Z,90.90
2019-01-04T17:25:07.553Z,91.10
2019-01-04T17:27:35.938Z,91.00
2019-01-04T17:30:07.250Z,91.10
2019-01-04T17:32:35.649Z,91.50
2019-01-04T17:35:05.330Z,91.50
2019-01-04T17:37:33.736Z,91.40
2019-01-04T17:40:07.424Z,91.80
2019-01-04T17:42:37.170Z,92.10
2019-01-04T17:45:14.120Z,93.10
2019-01-04T17:47:42.525Z,92.60
2019-01-04T17:50:11.176Z,92.50
2019-01-04T17:52:39.565Z,92.90
2019-01-04T17:55:08.001Z,93.00
2019-01-04T17:57:36.408Z,93.00
2019-01-04T18:00:07.553Z,93.10
2019-01-04T18:02:35.957Z,92.90
2019-01-04T18:05:05.263Z,93.00
2019-01-04T18:07:33.772Z,93.10
2019-01-04T18:10:02.146Z,93.00
2019-01-04T18:12:30.545Z,93.00
2019-01-04T18:14:58.928Z,93.20
2019-01-04T18:17:27.410Z,93.30
2019-01-04T18:19:55.803Z,93.30
2019-01-04T18:22:24.178Z,93.50
2019-01-04T18:24:53.894Z,93.60
2019-01-04T18:27:22.271Z,93.70
2019-01-04T18:29:50.708Z,93.70
2019-01-04T18:32:19.077Z,93.80
2019-01-04T18:34:49.528Z,93.60
2019-01-04T18:37:18.167Z,93.90
2019-01-04T18:39:46.653Z,93.60
2019-01-04T18:42:15.086Z,94.10
2019-01-04T18:44:43.621Z,94.20
2019-01-04T18:47:12.003Z,94.10
2019-01-04T18:49:40.451Z,94.00
2019-01-04T18:52:08.849Z,94.10
2019-01-04T18:54:37.246Z,93.50
2019-01-04T18:57:05.663Z,93.60
2019-01-04T18:59:34.081Z,93.50
2019-01-04T19:02:02.443Z,93.40
2019-01-04T19:04:37.038Z,93.20
2019-01-04T19:07:01.854Z,93.30
2019-01-04T19:09:30.268Z,93.80
2019-01-04T19:11:58.641Z,93.40
2019-01-04T19:14:27.084Z,93.70
2019-01-04T19:16:55.457Z,93.70
2019-01-04T19:19:23.855Z,93.40
2019-01-04T19:21:52.233Z,93.30
2019-01-04T19:24:20.691Z,93.40
2019-01-04T19:26:49.336Z,93.10
2019-01-04T19:29:17.725Z,93.20
2019-01-04T19:31:46.405Z,93.10
2019-01-04T19:34:15.355Z,93.10
2019-01-04T19:36:43.709Z,93.00
2019-01-04T19:39:12.178Z,93.20
2019-01-04T19:41:43.261Z,92.70
2019-01-04T19:44:11.667Z,92.80
2019-01-04T19:46:40.047Z,93.00
2019-01-04T19:49:11.144Z,92.80
2019-01-04T19:51:40.822Z,93.00
2019-01-04T19:54:09.229Z,92.80
2019-01-04T19:56:37.599Z,93.40
2019-01-04T19:59:06.102Z,92.90
2019-01-04T20:01:35.144Z,93.20
2019-01-04T20:04:03.547Z,93.60
2019-01-04T20:06:55.036Z,94.30
2019-01-04T20:09:33.612Z,93.30
2019-01-04T20:12:30.824Z,93.20
2019-01-04T20:15:26.064Z,93.30
2019-01-04T20:18:05.041Z,93.40
2019-01-04T20:20:35.324Z,93.40
2019-01-04T20:23:08.347Z,93.50
2019-01-04T20:25:47.426Z,93.60
2019-01-04T20:28:23.448Z,93.70
2019-01-04T20:31:09.829Z,93.60
2019-01-04T20:33:53.591Z,93.70
2019-01-04T20:36:38.480Z,93.50
2019-01-04T20:39:17.239Z,93.30
2019-01-04T20:42:03.655Z,93.30
2019-01-04T20:44:49.953Z,93.50
2019-01-04T20:47:28.774Z,93.50
2019-01-04T20:49:59.045Z,93.40
2019-01-04T20:52:38.232Z,93.50
2019-01-04T20:55:24.605Z,93.80
2019-01-04T20:58:11.431Z,94.00
2019-01-04T21:00:47.434Z,94.20
2019-01-04T21:03:23.201Z,94.40
2019-01-04T21:06:09.432Z,94.60
2019-01-04T21:08:39.789Z,94.70
2019-01-04T21:11:26.449Z,95.70
2019-01-04T21:14:02.520Z,95.30
2019-01-04T21:16:32.855Z,95.30
2019-01-04T21:19:08.800Z,95.30
2019-01-04T21:21:55.228Z,95.50
2019-01-04T21:24:41.344Z,95.50
2019-01-04T21:27:17.097Z,95.80
2019-01-04T21:29:59.332Z,95.90
2019-01-04T21:32:32.178Z,95.90
2019-01-04T21:35:18.824Z,96.30
2019-01-04T21:37:54.535Z,96.00
2019-01-04T21:40:40.775Z,96.20
2019-01-04T21:43:23.148Z,96.30
2019-01-04T21:45:55.961Z,96.60
2019-01-04T21:48:44.260Z,96.60
2019-01-04T21:51:17.807Z,96.70
2019-01-04T21:53:53.483Z,96.50
2019-01-04T21:56:23.916Z,96.60
2019-01-04T21:59:08.894Z,96.60
2019-01-04T22:01:55.281Z,96.60
2019-01-04T22:04:43.338Z,96.60
2019-01-04T22:07:25.560Z,96.60
2019-01-04T22:10:04.402Z,96.90
2019-01-04T22:12:34.440Z,96.80
2019-01-04T22:15:19.577Z,96.90
2019-01-04T22:18:06.752Z,97.00
2019-01-04T22:20:45.550Z,97.00
2019-01-04T22:23:20.752Z,97.00
2019-01-04T22:26:03.355Z,97.10
2019-01-04T22:28:36.342Z,97.10
2019-01-04T22:31:09.530Z,97.20
2019-01-04T22:33:40.337Z,97.20
2019-01-04T22:36:19.600Z,97.40
2019-01-04T22:38:49.668Z,97.40
2019-01-04T22:41:25.838Z,97.50
2019-01-04T22:44:14.335Z,97.50
2019-01-04T22:47:00.628Z,97.50
2019-01-04T22:49:36.376Z,97.60
2019-01-04T22:52:06.890Z,97.70
2019-01-04T22:54:42.476Z,97.60
2019-01-04T22:57:18.456Z,97.50
2019-01-04T22:59:48.609Z,99.40
2019-01-04T23:02:18.719Z,97.70
2019-01-04T23:04:55.158Z,97.40
2019-01-04T23:07:41.661Z,97.20
2019-01-04T23:10:11.935Z,97.30
2019-01-04T23:12:45.211Z,97.50
2019-01-04T23:15:20.984Z,97.50
2019-01-04T23:18:03.191Z,97.90
2019-01-04T23:20:33.200Z,97.50
2019-01-04T23:23:09.719Z,97.70
2019-01-04T23:25:57.880Z,97.40
2019-01-04T23:28:34.021Z,97.40
2019-01-04T23:31:16.313Z,97.40
2019-01-04T23:33:49.316Z,97.40
2019-01-04T23:36:35.849Z,97.60
2019-01-04T23:39:07.232Z,97.40
2019-01-04T23:41:49.339Z,97.40
2019-01-04T23:44:25.323Z,97.60
2019-01-04T23:46:55.486Z,97.50
2019-01-04T23:49:25.563Z,97.40
2019-01-04T23:51:55.570Z,97.50
2019-01-04T23:54:38.671Z,97.40
2019-01-04T23:57:11.212Z,97.50
2019-01-04T23:59:58.804Z,97.50
